createdAt,value
2017-03-13T00:00:29.382Z,8.48
2017-03-13T00:01:43.055Z,8.44
2017-03-13T00:02:57.139Z,8.42
2017-03-13T00:04:10.749Z,8.37
2017-03-13T00:05:24.330Z,8.34
2017-03-13T00:06:38.451Z,8.33
2017-03-13T00:07:52.068Z,8.31
2017-03-13T00:09:05.557Z,8.29
2017-03-13T00:10:19.084Z,8.29
2017-03-13T00:11:32.710Z,8.28
2017-03-13T00:12:46.705Z,8.28
2017-03-13T00:14:00.794Z,8.28
2017-03-13T00:15:14.876Z,8.3
2017-03-13T00:16:28.786Z,8.33
2017-03-13T00:17:42.654Z,8.33
2017-03-13T00:18:56.179Z,8.34
2017-03-13T00:20:11.835Z,8.33
2017-03-13T00:21:25.388Z,8.34
2017-03-13T00:22:39.418Z,8.33
2017-03-13T00:23:53.850Z,8.35
2017-03-13T00:25:08.643Z,8.36
2017-03-13T00:26:22.161Z,8.37
2017-03-13T00:27:36.522Z,8.34
2017-03-13T00:28:50.102Z,8.33
2017-03-13T00:30:04.433Z,8.33
2017-03-13T00:31:17.931Z,8.34
2017-03-13T00:32:32.080Z,8.34
2017-03-13T00:33:45.610Z,8.34
2017-03-13T00:34:59.563Z,8.32
2017-03-13T00:36:13.532Z,8.29
2017-03-13T00:37:27.843Z,8.27
2017-03-13T00:38:41.382Z,8.25
2017-03-13T00:39:55.052Z,8.26
2017-03-13T00:41:09.016Z,8.24
2017-03-13T00:42:22.490Z,8.24
2017-03-13T00:43:36.024Z,8.27
2017-03-13T00:44:49.652Z,8.3
2017-03-13T00:46:03.685Z,8.32
2017-03-13T00:47:17.236Z,8.32
2017-03-13T00:48:30.750Z,8.32
2017-03-13T00:49:44.324Z,8.31
2017-03-13T00:50:57.892Z,8.29
2017-03-13T00:52:11.444Z,8.28
2017-03-13T00:53:25.397Z,8.29
2017-03-13T00:54:39.685Z,8.29
2017-03-13T00:55:53.665Z,8.27
2017-03-13T00:57:08.027Z,8.26
2017-03-13T00:58:22.385Z,8.22
2017-03-13T00:59:36.984Z,8.21
2017-03-13T01:00:50.617Z,8.17
2017-03-13T01:02:04.115Z,8.13
2017-03-13T01:03:18.549Z,8.08
2017-03-13T01:04:33.075Z,8.04
2017-03-13T01:05:46.615Z,8.01
2017-03-13T01:07:01.143Z,8.01
2017-03-13T01:08:14.754Z,8.03
2017-03-13T01:09:28.295Z,8.03
2017-03-13T01:10:42.083Z,8.01
2017-03-13T01:11:55.705Z,8.02
2017-03-13T01:13:09.319Z,8.02
2017-03-13T01:14:22.777Z,8.03
2017-03-13T01:15:37.224Z,8.02
2017-03-13T01:16:50.963Z,8.03
2017-03-13T01:18:04.890Z,8.05
2017-03-13T01:19:18.796Z,8.02
2017-03-13T01:20:32.325Z,8.01
2017-03-13T01:21:45.952Z,8
2017-03-13T01:22:59.535Z,7.97
2017-03-13T01:24:13.142Z,7.95
2017-03-13T01:25:26.602Z,7.97
2017-03-13T01:26:40.074Z,7.97
2017-03-13T01:27:53.567Z,7.97
2017-03-13T01:29:07.040Z,7.98
2017-03-13T01:30:21.021Z,7.97
2017-03-13T01:31:34.479Z,7.94
2017-03-13T01:32:48.055Z,7.91
2017-03-13T01:34:01.604Z,7.89
2017-03-13T01:35:15.962Z,7.88
2017-03-13T01:36:31.994Z,7.86
2017-03-13T01:37:45.943Z,7.86
2017-03-13T01:38:59.443Z,7.85
2017-03-13T01:40:13.322Z,7.83
2017-03-13T01:41:26.845Z,7.81
2017-03-13T01:42:40.348Z,7.81
2017-03-13T01:43:53.872Z,7.79
2017-03-13T01:45:07.396Z,7.75
2017-03-13T01:46:21.074Z,7.71
2017-03-13T01:47:34.671Z,7.7
2017-03-13T01:48:48.634Z,7.66
2017-03-13T01:50:02.492Z,7.63
2017-03-13T01:51:16.340Z,7.64
2017-03-13T01:52:29.820Z,7.65
2017-03-13T01:53:43.426Z,7.63
2017-03-13T01:54:56.952Z,7.61
2017-03-13T01:56:10.642Z,7.62
2017-03-13T01:57:24.140Z,7.64
2017-03-13T01:58:37.655Z,7.64
2017-03-13T01:59:51.678Z,7.59
2017-03-13T02:01:05.770Z,7.57
2017-03-13T02:02:19.628Z,7.53
2017-03-13T02:03:33.231Z,7.52
2017-03-13T02:04:46.818Z,7.51
2017-03-13T02:06:00.282Z,7.49
2017-03-13T02:07:13.749Z,7.49
2017-03-13T02:08:27.207Z,7.49
2017-03-13T02:09:40.902Z,7.5
2017-03-13T02:10:54.353Z,7.5
2017-03-13T02:12:07.810Z,7.53
2017-03-13T02:13:21.269Z,7.54
2017-03-13T02:14:34.723Z,7.53
2017-03-13T02:15:48.406Z,7.55
2017-03-13T02:17:01.869Z,7.55
2017-03-13T02:18:15.720Z,7.52
2017-03-13T02:19:29.640Z,7.49
2017-03-13T02:20:43.624Z,7.47
2017-03-13T02:21:57.092Z,7.45
2017-03-13T02:23:10.573Z,7.42
2017-03-13T02:24:24.906Z,7.39
2017-03-13T02:25:39.470Z,7.37
2017-03-13T02:26:52.921Z,7.34
2017-03-13T02:28:06.821Z,7.34
2017-03-13T02:29:20.833Z,7.34
2017-03-13T02:30:34.285Z,7.32
2017-03-13T02:31:48.213Z,7.29
2017-03-13T02:33:01.728Z,7.26
2017-03-13T02:34:27.936Z,7.22
2017-03-13T02:35:41.510Z,7.19
2017-03-13T02:36:54.963Z,7.16
2017-03-13T02:38:08.513Z,7.16
2017-03-13T02:39:21.945Z,7.15
2017-03-13T02:40:35.415Z,7.13
2017-03-13T02:41:48.989Z,7.09
2017-03-13T02:43:02.798Z,7.06
2017-03-13T02:44:16.316Z,7.06
2017-03-13T02:45:30.135Z,7.05
2017-03-13T02:46:43.667Z,7.07
2017-03-13T02:47:57.496Z,7.09
2017-03-13T02:49:10.929Z,7.09
2017-03-13T02:50:24.779Z,7.07
2017-03-13T02:51:38.286Z,7.03
2017-03-13T02:52:53.925Z,6.99
2017-03-13T02:54:07.441Z,6.99
2017-03-13T02:55:20.879Z,6.99
2017-03-13T02:56:34.360Z,6.99
2017-03-13T02:57:48.369Z,6.99
2017-03-13T02:59:01.835Z,6.99
2017-03-13T03:00:15.260Z,7
2017-03-13T03:01:28.848Z,7.02
2017-03-13T03:02:42.779Z,7.02
2017-03-13T03:03:56.251Z,7.02
2017-03-13T03:05:10.118Z,7.02
2017-03-13T03:06:23.983Z,7.03
2017-03-13T03:07:37.587Z,7.04
2017-03-13T03:08:51.099Z,7.04
2017-03-13T03:10:04.959Z,7.03
2017-03-13T03:11:18.430Z,7.04
2017-03-13T03:12:31.874Z,7.04
2017-03-13T03:13:46.859Z,7.01
2017-03-13T03:15:00.508Z,7
2017-03-13T03:16:15.774Z,6.99
2017-03-13T03:17:31.431Z,6.98
2017-03-13T03:18:47.222Z,6.96
2017-03-13T03:20:02.390Z,6.94
2017-03-13T03:21:17.660Z,6.94
2017-03-13T03:22:34.124Z,6.93
2017-03-13T03:23:50.241Z,6.91
2017-03-13T03:25:04.359Z,6.87
2017-03-13T03:26:17.857Z,6.83
2017-03-13T03:27:31.788Z,6.8
2017-03-13T03:28:45.337Z,6.77
2017-03-13T03:29:59.156Z,6.75
2017-03-13T03:31:12.551Z,6.71
2017-03-13T03:32:26.088Z,6.67
2017-03-13T03:33:39.657Z,6.65
2017-03-13T03:34:53.109Z,6.65
2017-03-13T03:36:06.560Z,6.66
2017-03-13T03:37:20.036Z,6.67
2017-03-13T03:38:33.881Z,6.66
2017-03-13T03:39:47.448Z,6.63
2017-03-13T03:41:00.902Z,6.58
2017-03-13T03:42:14.737Z,6.52
2017-03-13T03:43:28.150Z,6.45
2017-03-13T03:44:41.824Z,6.41
2017-03-13T03:45:56.947Z,6.37
2017-03-13T03:47:10.849Z,6.35
2017-03-13T03:48:25.090Z,6.34
2017-03-13T03:49:53.543Z,6.34
2017-03-13T03:51:07.003Z,6.34
2017-03-13T03:52:20.435Z,6.35
2017-03-13T03:53:33.867Z,6.36
2017-03-13T03:54:47.315Z,6.37
2017-03-13T03:56:00.946Z,6.37
2017-03-13T03:57:15.370Z,6.35
2017-03-13T03:58:28.822Z,6.34
2017-03-13T03:59:42.268Z,6.32
2017-03-13T04:00:56.269Z,6.29
2017-03-13T04:02:09.730Z,6.24
2017-03-13T04:03:23.249Z,6.21
2017-03-13T04:04:37.099Z,6.16
2017-03-13T04:05:50.677Z,6.12
2017-03-13T04:07:05.427Z,6.09
2017-03-13T04:08:18.839Z,6.09
2017-03-13T04:09:34.987Z,6.09
2017-03-13T04:10:48.475Z,6.1
2017-03-13T04:12:02.059Z,6.08
2017-03-13T04:13:15.508Z,6.08
2017-03-13T04:14:28.938Z,6.09
2017-03-13T04:15:43.947Z,6.07
2017-03-13T04:16:57.548Z,6.08
2017-03-13T04:18:10.992Z,6.1
2017-03-13T04:19:24.419Z,6.11
2017-03-13T04:20:37.873Z,6.12
2017-03-13T04:21:51.618Z,6.13
2017-03-13T04:23:05.453Z,6.13
2017-03-13T04:24:18.888Z,6.14
2017-03-13T04:25:32.734Z,6.14
2017-03-13T04:26:46.314Z,6.13
2017-03-13T04:28:00.180Z,6.13
2017-03-13T04:29:13.645Z,6.1
2017-03-13T04:30:27.577Z,6.09
2017-03-13T04:31:41.014Z,6.11
2017-03-13T04:32:54.599Z,6.1
2017-03-13T04:34:08.060Z,6.12
2017-03-13T04:35:21.530Z,6.13
2017-03-13T04:36:35.525Z,6.16
2017-03-13T04:37:49.090Z,6.2
2017-03-13T04:39:05.582Z,6.23
2017-03-13T04:40:19.453Z,6.26
2017-03-13T04:41:33.383Z,6.26
2017-03-13T04:42:46.916Z,6.24
2017-03-13T04:44:00.388Z,6.19
2017-03-13T04:45:14.329Z,6.15
2017-03-13T04:46:27.749Z,6.11
2017-03-13T04:47:41.279Z,6.1
2017-03-13T04:48:55.215Z,6.04
2017-03-13T04:50:08.654Z,5.98
2017-03-13T04:51:22.568Z,5.96
2017-03-13T04:52:36.496Z,5.98
2017-03-13T04:53:50.467Z,5.99
2017-03-13T04:55:04.574Z,6.01
2017-03-13T04:56:18.517Z,6.03
2017-03-13T04:57:32.398Z,6.05
2017-03-13T04:58:46.799Z,6.06
2017-03-13T05:00:00.887Z,6.05
2017-03-13T05:01:15.202Z,6.04
2017-03-13T05:02:28.631Z,6.01
2017-03-13T05:03:42.162Z,6
2017-03-13T05:04:55.921Z,5.99
2017-03-13T05:06:09.407Z,5.99
2017-03-13T05:07:23.078Z,5.99
2017-03-13T05:08:37.083Z,6
2017-03-13T05:09:51.062Z,6.01
2017-03-13T05:11:04.853Z,6.02
2017-03-13T05:12:18.390Z,6.02
2017-03-13T05:13:32.101Z,6.04
2017-03-13T05:14:46.038Z,6.05
2017-03-13T05:15:59.978Z,6.06
2017-03-13T05:17:14.153Z,6.07
2017-03-13T05:18:27.634Z,6.07
2017-03-13T05:19:41.264Z,6.08
2017-03-13T05:25:18.033Z,6.07
2017-03-13T05:26:31.496Z,6.05
2017-03-13T05:27:45.754Z,6.06
2017-03-13T05:29:01.626Z,6.06
2017-03-13T05:30:15.689Z,6.08
2017-03-13T05:31:29.587Z,6.09
2017-03-13T05:32:43.083Z,6.13
2017-03-13T05:33:56.516Z,6.13
2017-03-13T05:35:10.602Z,6.1
2017-03-13T05:36:24.819Z,6.1
2017-03-13T05:37:38.251Z,6.09
2017-03-13T05:38:52.032Z,6.09
2017-03-13T05:40:05.522Z,6.08
2017-03-13T05:41:19.484Z,6.09
2017-03-13T05:42:32.989Z,6.11
2017-03-13T05:43:46.616Z,6.09
2017-03-13T05:45:00.872Z,6.08
2017-03-13T05:46:15.219Z,6.09
2017-03-13T05:47:28.756Z,6.05
2017-03-13T05:48:42.249Z,6.02
2017-03-13T05:49:55.726Z,6
2017-03-13T05:51:09.862Z,5.96
2017-03-13T05:52:23.778Z,5.92
2017-03-13T05:53:37.308Z,5.88
2017-03-13T05:54:51.243Z,5.84
2017-03-13T05:56:11.184Z,5.84
2017-03-13T05:57:24.967Z,5.84
2017-03-13T05:58:38.940Z,5.86
2017-03-13T05:59:52.830Z,5.88
2017-03-13T06:01:06.825Z,5.91
2017-03-13T06:02:20.597Z,5.94
2017-03-13T06:03:34.339Z,5.99
2017-03-13T06:04:47.775Z,6.02
2017-03-13T06:06:01.236Z,6.04
2017-03-13T06:07:14.962Z,6.05
2017-03-13T06:08:28.529Z,6.07
2017-03-13T06:09:42.262Z,6.11
2017-03-13T06:10:55.697Z,6.16
2017-03-13T06:12:09.646Z,6.18
2017-03-13T06:13:23.360Z,6.17
2017-03-13T06:14:36.831Z,6.19
2017-03-13T06:15:50.630Z,6.23
2017-03-13T06:17:04.699Z,6.25
2017-03-13T06:18:18.268Z,6.26
2017-03-13T06:19:32.123Z,6.28
2017-03-13T06:20:46.003Z,6.31
2017-03-13T06:21:59.768Z,6.32
2017-03-13T06:23:13.221Z,6.32
2017-03-13T06:24:26.761Z,6.32
2017-03-13T06:25:40.222Z,6.35
2017-03-13T06:26:53.684Z,6.3
2017-03-13T06:28:07.603Z,6.23
2017-03-13T06:29:21.299Z,6.24
2017-03-13T06:30:34.727Z,6.25
2017-03-13T06:31:48.644Z,6.25
2017-03-13T06:33:02.136Z,6.26
2017-03-13T06:34:16.680Z,6.29
2017-03-13T06:35:30.217Z,6.32
2017-03-13T06:36:43.662Z,6.34
2017-03-13T06:37:57.133Z,6.38
2017-03-13T06:39:10.569Z,6.39
2017-03-13T06:40:24.334Z,6.42
2017-03-13T06:41:37.939Z,6.44
2017-03-13T06:42:51.378Z,6.49
2017-03-13T06:44:04.841Z,6.55
2017-03-13T06:45:20.529Z,6.58
2017-03-13T06:46:34.454Z,6.63
2017-03-13T06:47:47.944Z,6.66
2017-03-13T06:49:01.419Z,6.67
2017-03-13T06:50:14.940Z,6.67
2017-03-13T06:51:28.904Z,6.66
2017-03-13T06:52:42.780Z,6.67
2017-03-13T06:53:56.369Z,6.65
2017-03-13T06:55:10.218Z,6.65
2017-03-13T06:56:24.120Z,6.66
2017-03-13T06:57:37.650Z,6.66
2017-03-13T06:58:51.885Z,6.65
2017-03-13T07:00:05.521Z,6.68
2017-03-13T07:01:19.031Z,6.69
2017-03-13T07:02:32.546Z,6.71
2017-03-13T07:03:46.004Z,6.75
2017-03-13T07:05:00.156Z,6.82
2017-03-13T07:06:13.687Z,6.88
2017-03-13T07:07:27.254Z,6.92
2017-03-13T07:08:40.735Z,6.92
2017-03-13T07:09:54.197Z,6.93
2017-03-13T07:11:07.976Z,6.97
2017-03-13T07:12:21.851Z,6.99
2017-03-13T07:13:36.016Z,6.99
2017-03-13T07:14:49.934Z,7.03
2017-03-13T07:16:03.798Z,7.06
2017-03-13T07:17:17.552Z,7.11
2017-03-13T07:18:31.060Z,7.13
2017-03-13T07:19:45.042Z,7.12
2017-03-13T07:20:59.391Z,7.13
2017-03-13T07:22:13.262Z,7.18
2017-03-13T07:23:27.132Z,7.22
2017-03-13T07:24:40.563Z,7.27
2017-03-13T07:25:54.069Z,7.27
2017-03-13T07:27:07.993Z,7.28
2017-03-13T07:28:21.515Z,7.34
2017-03-13T07:29:35.317Z,7.37
2017-03-13T07:30:48.808Z,7.45
2017-03-13T07:32:02.804Z,7.53
2017-03-13T07:33:16.294Z,7.61
2017-03-13T07:34:30.274Z,7.7
2017-03-13T07:35:44.034Z,7.75
2017-03-13T07:36:57.527Z,7.82
2017-03-13T07:38:11.056Z,7.87
2017-03-13T07:39:24.643Z,7.91
2017-03-13T07:40:38.120Z,7.93
2017-03-13T07:41:52.767Z,7.97
2017-03-13T07:43:06.343Z,8
2017-03-13T07:44:19.835Z,8.01
2017-03-13T07:45:33.804Z,8
2017-03-13T07:46:47.285Z,8
2017-03-13T07:48:01.034Z,8.02
2017-03-13T07:49:14.515Z,8.05
2017-03-13T07:50:28.137Z,8.08
2017-03-13T07:51:41.725Z,8.11
2017-03-13T07:52:55.387Z,8.12
2017-03-13T07:54:09.124Z,8.13
2017-03-13T07:55:23.118Z,8.1
2017-03-13T07:56:37.059Z,8.08
2017-03-13T07:57:50.536Z,8.06
2017-03-13T07:59:04.020Z,8.07
2017-03-13T08:00:17.765Z,8.08
2017-03-13T08:01:33.525Z,8.09
2017-03-13T08:02:47.199Z,8.12
2017-03-13T08:04:00.814Z,8.18
2017-03-13T08:05:14.399Z,8.24
2017-03-13T08:06:28.242Z,8.27
2017-03-13T08:07:42.142Z,8.34
2017-03-13T08:08:55.651Z,8.4
2017-03-13T08:10:09.150Z,8.45
2017-03-13T08:11:23.460Z,8.48
2017-03-13T08:12:37.664Z,8.49
2017-03-13T08:13:51.546Z,8.5
2017-03-13T08:15:05.839Z,8.52
2017-03-13T08:16:20.249Z,8.54
2017-03-13T08:17:33.970Z,8.58
2017-03-13T08:18:48.173Z,8.62
2017-03-13T08:20:01.628Z,8.65
2017-03-13T08:21:15.100Z,8.69
2017-03-13T08:22:28.681Z,8.73
2017-03-13T08:23:42.151Z,8.78
2017-03-13T08:24:55.908Z,8.83
2017-03-13T08:26:09.385Z,8.89
2017-03-13T08:27:22.946Z,8.94
2017-03-13T08:29:21.636Z,8.98
2017-03-13T08:30:35.386Z,9
2017-03-13T08:31:48.853Z,9.03
2017-03-13T08:33:03.121Z,9.11
2017-03-13T08:34:17.441Z,9.19
2017-03-13T08:35:30.873Z,9.26
2017-03-13T08:36:44.710Z,9.34
2017-03-13T08:37:59.660Z,9.4
2017-03-13T08:39:13.196Z,9.39
2017-03-13T08:40:26.821Z,9.4
2017-03-13T08:41:40.342Z,9.43
2017-03-13T08:42:53.862Z,9.51
2017-03-13T08:44:08.541Z,9.59
2017-03-13T08:45:22.518Z,9.65
2017-03-13T08:46:36.165Z,9.69
2017-03-13T08:47:49.733Z,9.73
2017-03-13T08:49:04.015Z,9.76
2017-03-13T08:50:17.539Z,9.78
2017-03-13T08:51:30.997Z,9.82
2017-03-13T08:52:44.747Z,9.87
2017-03-13T08:53:58.638Z,9.94
2017-03-13T08:55:12.833Z,10.04
2017-03-13T08:56:26.861Z,10.15
2017-03-13T08:57:40.538Z,10.21
2017-03-13T08:58:54.048Z,10.23
2017-03-13T09:00:07.544Z,10.26
2017-03-13T09:01:21.707Z,10.3
2017-03-13T09:02:47.918Z,10.38
2017-03-13T09:04:01.411Z,10.47
2017-03-13T09:05:15.119Z,10.55
2017-03-13T09:06:29.034Z,10.65
2017-03-13T09:07:42.777Z,10.74
2017-03-13T09:08:56.620Z,10.84
2017-03-13T09:10:10.138Z,10.94
2017-03-13T09:11:24.106Z,11.06
2017-03-13T09:12:37.570Z,11.17
2017-03-13T09:13:51.779Z,11.32
2017-03-13T09:15:05.354Z,11.47
2017-03-13T09:16:18.892Z,11.6
2017-03-13T09:17:32.409Z,11.75
2017-03-13T09:18:48.089Z,11.85
2017-03-13T09:20:01.983Z,11.93
2017-03-13T09:21:15.552Z,11.99
2017-03-13T09:22:29.404Z,12.01
2017-03-13T09:23:43.362Z,11.99
2017-03-13T09:24:56.882Z,11.97
2017-03-13T09:26:10.733Z,11.97
2017-03-13T09:27:24.709Z,11.98
2017-03-13T09:28:38.192Z,11.99
2017-03-13T09:29:51.839Z,12.01
2017-03-13T09:31:05.395Z,12.05
2017-03-13T09:32:19.148Z,12.09
2017-03-13T09:33:32.810Z,12.11
2017-03-13T09:34:46.370Z,12.16
2017-03-13T09:36:00.133Z,12.18
2017-03-13T09:37:13.851Z,12.19
2017-03-13T09:38:27.619Z,12.23
2017-03-13T09:39:41.107Z,12.24
2017-03-13T09:40:54.598Z,12.21
2017-03-13T09:42:08.176Z,12.16
2017-03-13T09:43:22.060Z,12.1
2017-03-13T09:44:35.836Z,12.07
2017-03-13T09:45:49.338Z,12.07
2017-03-13T09:47:03.663Z,12.09
2017-03-13T09:48:17.896Z,12.12
2017-03-13T09:49:32.034Z,12.16
2017-03-13T09:50:46.269Z,12.19
2017-03-13T09:51:59.697Z,12.21
2017-03-13T09:53:13.619Z,12.22
2017-03-13T09:54:27.074Z,12.24
2017-03-13T09:55:40.548Z,12.26
2017-03-13T09:56:54.711Z,12.3
2017-03-13T09:58:08.248Z,12.34
2017-03-13T09:59:21.703Z,12.37
2017-03-13T10:00:35.208Z,12.41
2017-03-13T10:01:48.684Z,12.46
2017-03-13T10:03:02.674Z,12.52
2017-03-13T10:04:28.971Z,12.55
2017-03-13T10:05:42.456Z,12.55
2017-03-13T10:06:56.377Z,12.56
2017-03-13T10:08:11.263Z,12.57
2017-03-13T10:09:24.697Z,12.57
2017-03-13T10:10:38.153Z,12.58
2017-03-13T10:11:51.639Z,12.6
2017-03-13T10:13:05.141Z,12.64
2017-03-13T10:14:19.139Z,12.69
2017-03-13T10:15:33.029Z,12.72
2017-03-13T10:16:46.473Z,12.76
2017-03-13T10:17:59.941Z,12.79
2017-03-13T10:19:13.512Z,12.83
2017-03-13T10:20:27.268Z,12.88
2017-03-13T10:21:40.818Z,12.93
2017-03-13T10:22:54.356Z,13
2017-03-13T10:24:08.284Z,13.08
2017-03-13T10:25:21.803Z,13.15
2017-03-13T10:26:35.990Z,13.17
2017-03-13T10:27:49.592Z,13.19
2017-03-13T10:29:03.103Z,13.19
2017-03-13T10:30:16.669Z,13.19
2017-03-13T10:31:30.160Z,13.14
2017-03-13T10:32:43.893Z,13.11
2017-03-13T10:33:57.478Z,13.11
2017-03-13T10:35:13.553Z,13.1
2017-03-13T10:36:27.050Z,13.11
2017-03-13T10:37:40.949Z,13.13
2017-03-13T10:38:55.167Z,13.17
2017-03-13T10:40:08.686Z,13.22
2017-03-13T10:41:22.637Z,13.28
2017-03-13T10:42:36.124Z,13.3
2017-03-13T10:43:49.622Z,13.29
2017-03-13T10:45:03.172Z,13.24
2017-03-13T10:46:17.099Z,13.23
2017-03-13T10:47:30.551Z,13.22
2017-03-13T10:48:44.440Z,13.19
2017-03-13T10:52:13.432Z,13.12
2017-03-13T10:53:27.365Z,13.15
2017-03-13T10:54:41.419Z,13.15
2017-03-13T10:55:54.929Z,13.17
2017-03-13T10:57:09.270Z,13.18
2017-03-13T10:58:23.249Z,13.21
2017-03-13T10:59:36.765Z,13.23
2017-03-13T11:00:50.746Z,13.26
2017-03-13T11:02:04.353Z,13.3
2017-03-13T11:03:18.261Z,13.35
2017-03-13T11:04:32.004Z,13.42
2017-03-13T11:05:45.887Z,13.48
2017-03-13T11:06:59.358Z,13.54
2017-03-13T11:08:12.913Z,13.61
2017-03-13T11:09:27.183Z,13.7
2017-03-13T11:10:41.667Z,13.77
2017-03-13T11:11:55.129Z,13.88
2017-03-13T11:13:09.125Z,13.89
2017-03-13T11:14:22.551Z,13.9
2017-03-13T11:15:36.048Z,13.89
2017-03-13T11:16:50.220Z,13.91
2017-03-13T11:18:04.582Z,13.93
2017-03-13T11:19:18.101Z,14.01
2017-03-13T11:20:32.012Z,14.11
2017-03-13T11:21:46.360Z,14.22
2017-03-13T11:23:00.562Z,14.34
2017-03-13T11:24:14.090Z,14.46
2017-03-13T11:25:27.577Z,14.56
2017-03-13T11:26:41.463Z,14.65
2017-03-13T11:27:55.393Z,14.72
2017-03-13T11:29:09.691Z,14.73
2017-03-13T11:30:23.152Z,14.76
2017-03-13T11:31:36.609Z,14.78
2017-03-13T11:32:50.106Z,14.83
2017-03-13T11:34:03.730Z,14.9
2017-03-13T11:35:17.501Z,14.98
2017-03-13T11:36:30.953Z,15.1
2017-03-13T11:37:44.497Z,15.2
2017-03-13T11:38:57.948Z,15.33
2017-03-13T11:40:11.680Z,15.48
2017-03-13T11:41:25.830Z,15.63
2017-03-13T11:42:39.277Z,15.77
2017-03-13T11:43:52.739Z,15.92
2017-03-13T11:45:07.253Z,16.07
2017-03-13T11:46:20.807Z,16.2
2017-03-13T11:47:34.583Z,16.31
2017-03-13T11:48:48.495Z,16.39
2017-03-13T11:50:02.078Z,16.37
2017-03-13T11:51:15.581Z,16.25
2017-03-13T11:52:31.611Z,16.11
2017-03-13T11:53:45.768Z,16.02
2017-03-13T11:54:59.818Z,15.96
2017-03-13T11:56:13.665Z,15.92
2017-03-13T11:57:27.151Z,15.94
2017-03-13T11:58:40.769Z,15.98
2017-03-13T11:59:54.573Z,16.05
2017-03-13T12:01:08.966Z,16.12
2017-03-13T12:03:07.235Z,16.22
2017-03-13T12:04:20.726Z,16.38
2017-03-13T12:05:35.042Z,16.49
2017-03-13T12:06:49.326Z,16.58
2017-03-13T12:08:02.836Z,16.6
2017-03-13T12:09:16.415Z,16.6
2017-03-13T12:10:30.354Z,16.61
2017-03-13T12:11:44.154Z,16.59
2017-03-13T12:12:57.668Z,16.6
2017-03-13T12:14:11.267Z,16.61
2017-03-13T12:15:24.763Z,16.63
2017-03-13T12:16:38.871Z,16.68
2017-03-13T12:17:52.370Z,16.66
2017-03-13T12:19:05.868Z,16.63
2017-03-13T12:20:19.319Z,16.57
2017-03-13T12:21:34.603Z,16.51
2017-03-13T12:22:48.116Z,16.48
2017-03-13T12:24:01.893Z,16.47
2017-03-13T12:25:15.347Z,16.45
2017-03-13T12:26:28.848Z,16.42
2017-03-13T12:27:42.497Z,16.38
2017-03-13T12:28:56.362Z,16.35
2017-03-13T12:30:09.804Z,16.34
2017-03-13T12:31:23.276Z,16.34
2017-03-13T12:32:37.252Z,16.28
2017-03-13T12:33:52.183Z,16.24
2017-03-13T12:35:05.670Z,16.22
2017-03-13T12:36:20.001Z,16.21
2017-03-13T12:37:33.558Z,16.2
2017-03-13T12:38:47.045Z,16.21
2017-03-13T12:40:01.103Z,16.23
2017-03-13T12:41:14.979Z,16.27
2017-03-13T12:42:28.895Z,16.28
2017-03-13T12:43:42.818Z,16.27
2017-03-13T12:44:56.308Z,16.23
2017-03-13T12:46:09.793Z,16.14
2017-03-13T12:47:24.119Z,16.04
2017-03-13T12:48:38.995Z,15.93
2017-03-13T12:49:52.645Z,15.88
2017-03-13T12:51:06.728Z,15.84
2017-03-13T12:54:10.020Z,15.81
2017-03-13T12:55:24.492Z,15.67
2017-03-13T12:56:38.008Z,15.6
2017-03-13T12:57:51.530Z,15.57
2017-03-13T12:59:04.996Z,15.53
2017-03-13T13:00:19.406Z,15.48
2017-03-13T13:01:32.833Z,15.45
2017-03-13T13:02:46.733Z,15.42
2017-03-13T13:04:00.348Z,15.4
2017-03-13T13:05:13.856Z,15.36
2017-03-13T13:06:27.688Z,15.31
2017-03-13T13:07:41.817Z,15.27
2017-03-13T13:08:55.483Z,15.22
2017-03-13T13:10:09.067Z,15.19
2017-03-13T13:11:25.434Z,15.19
2017-03-13T13:20:52.127Z,15.25
2017-03-13T13:22:05.555Z,15.28
2017-03-13T13:23:19.099Z,15.29
2017-03-13T13:24:32.981Z,15.31
2017-03-13T13:25:46.912Z,15.31
2017-03-13T13:27:00.470Z,15.33
2017-03-13T13:28:14.877Z,15.3
2017-03-13T13:29:28.709Z,15.25
2017-03-13T13:30:43.170Z,15.26
2017-03-13T13:31:57.520Z,15.25
2017-03-13T13:40:31.853Z,15.44
2017-03-13T13:41:45.255Z,15.44
2017-03-13T13:43:00.054Z,15.43
2017-03-13T13:44:15.374Z,15.39
2017-03-13T13:45:31.072Z,15.33
2017-03-13T13:46:47.697Z,15.31
2017-03-13T13:50:47.659Z,15.24
2017-03-13T13:52:02.827Z,15.2
2017-03-13T13:53:16.594Z,15.18
2017-03-13T13:54:30.026Z,15.18
2017-03-13T13:55:44.642Z,15.2
2017-03-13T13:56:58.282Z,15.2
2017-03-13T13:58:12.798Z,15.21
2017-03-13T13:59:27.747Z,15.25
2017-03-13T14:00:41.725Z,15.28
2017-03-13T14:01:56.608Z,15.32
2017-03-13T14:03:10.514Z,15.34
2017-03-13T14:04:23.937Z,15.38
2017-03-13T14:05:38.050Z,15.37
2017-03-13T14:06:52.160Z,15.39
2017-03-13T14:08:05.988Z,15.43
2017-03-13T14:09:20.346Z,15.45
2017-03-13T14:10:35.456Z,15.47
2017-03-13T14:11:49.251Z,15.47
2017-03-13T14:13:03.054Z,15.44
2017-03-13T14:14:16.506Z,15.4
2017-03-13T14:15:30.724Z,15.4
2017-03-13T14:16:44.814Z,15.39
2017-03-13T14:17:59.325Z,15.38
2017-03-13T14:19:13.123Z,15.36
2017-03-13T14:20:27.135Z,15.35
2017-03-13T14:21:41.499Z,15.36
2017-03-13T14:22:54.977Z,15.4
2017-03-13T14:24:09.470Z,15.46
2017-03-13T14:25:23.890Z,15.54
2017-03-13T14:26:38.566Z,15.58
2017-03-13T14:27:54.104Z,15.63
2017-03-13T14:29:07.504Z,15.67
2017-03-13T14:30:21.622Z,15.72
2017-03-13T14:31:35.216Z,15.75
2017-03-13T14:32:48.656Z,15.78
2017-03-13T14:34:02.085Z,15.79
2017-03-13T14:35:16.367Z,15.82
2017-03-13T14:36:29.780Z,15.84
2017-03-13T14:37:43.406Z,15.87
2017-03-13T14:38:56.844Z,15.89
2017-03-13T14:40:12.449Z,15.93
2017-03-13T14:41:25.925Z,15.97
2017-03-13T14:42:39.650Z,16.02
2017-03-13T14:43:53.228Z,16.05
2017-03-13T14:45:06.702Z,16.07
2017-03-13T14:46:20.496Z,16.08
2017-03-13T14:47:34.793Z,16.1
2017-03-13T14:48:48.786Z,16.11
2017-03-13T14:50:02.676Z,16.14
2017-03-13T14:51:16.554Z,16.17
2017-03-13T14:52:30.421Z,16.19
2017-03-13T14:53:44.834Z,16.21
2017-03-13T14:54:59.357Z,16.22
2017-03-13T14:56:12.818Z,16.25
2017-03-13T14:57:26.285Z,16.3
2017-03-13T14:58:40.265Z,16.32
2017-03-13T14:59:59.931Z,16.35
2017-03-13T15:01:20.273Z,16.37
2017-03-13T15:02:34.164Z,16.42
2017-03-13T15:03:47.688Z,16.43
2017-03-13T15:05:01.106Z,16.45
2017-03-13T15:06:14.523Z,16.44
2017-03-13T15:07:27.951Z,16.42
2017-03-13T15:08:42.201Z,16.41
2017-03-13T15:09:55.816Z,16.38
2017-03-13T15:11:10.081Z,16.34
2017-03-13T15:12:23.614Z,16.31
2017-03-13T15:13:38.010Z,16.29
2017-03-13T15:14:51.571Z,16.27
2017-03-13T15:16:05.910Z,16.28
2017-03-13T15:17:19.748Z,16.3
2017-03-13T15:18:34.014Z,16.3
2017-03-13T15:19:49.294Z,16.32
2017-03-13T15:21:02.753Z,16.32
2017-03-13T15:22:22.468Z,16.3
2017-03-13T15:23:36.554Z,16.29
2017-03-13T15:25:03.290Z,16.3
2017-03-13T15:26:17.034Z,16.34
2017-03-13T15:27:31.377Z,16.35
2017-03-13T15:28:44.872Z,16.35
2017-03-13T15:29:59.272Z,16.37
2017-03-13T15:31:13.242Z,16.39
2017-03-13T15:32:26.993Z,16.43
2017-03-13T15:33:41.038Z,16.43
2017-03-13T15:34:55.041Z,16.45
2017-03-13T15:36:08.982Z,16.45
2017-03-13T15:37:22.994Z,16.44
2017-03-13T15:38:36.710Z,16.44
2017-03-13T15:39:50.933Z,16.43
2017-03-13T15:41:04.774Z,16.43
2017-03-13T15:42:18.173Z,16.41
2017-03-13T15:43:31.635Z,16.42
2017-03-13T15:44:45.361Z,16.44
2017-03-13T15:45:59.894Z,16.47
2017-03-13T15:47:13.349Z,16.49
2017-03-13T15:48:27.238Z,16.5
2017-03-13T15:49:40.674Z,16.51
2017-03-13T15:50:54.473Z,16.54
2017-03-13T15:52:08.342Z,16.52
2017-03-13T15:53:22.191Z,16.52
2017-03-13T15:54:35.618Z,16.48
2017-03-13T15:55:49.157Z,16.44
2017-03-13T15:57:05.880Z,16.42
2017-03-13T15:58:20.112Z,16.42
2017-03-13T15:59:33.524Z,16.41
2017-03-13T16:00:47.061Z,16.42
2017-03-13T16:02:00.509Z,16.41
2017-03-13T16:03:14.282Z,16.39
2017-03-13T16:04:27.750Z,16.38
2017-03-13T16:05:41.229Z,16.35
2017-03-13T16:06:55.022Z,16.34
2017-03-13T16:08:08.552Z,16.3
2017-03-13T16:09:22.320Z,16.28
2017-03-13T16:10:35.840Z,16.29
2017-03-13T16:11:49.893Z,16.31
2017-03-13T16:13:03.356Z,16.33
2017-03-13T16:14:17.634Z,16.35
2017-03-13T16:15:32.295Z,16.36
2017-03-13T16:16:45.992Z,16.38
2017-03-13T16:17:59.445Z,16.39
2017-03-13T16:19:13.341Z,16.39
2017-03-13T16:20:26.791Z,16.36
2017-03-13T16:21:40.561Z,16.37
2017-03-13T16:22:54.498Z,16.34
2017-03-13T16:24:07.948Z,16.3
2017-03-13T16:25:21.501Z,16.27
2017-03-13T16:26:34.957Z,16.24
2017-03-13T16:27:49.164Z,16.22
2017-03-13T16:29:02.597Z,16.2
2017-03-13T16:30:16.871Z,16.18
2017-03-13T16:31:30.334Z,16.14
2017-03-13T16:32:44.642Z,16.1
2017-03-13T16:33:58.462Z,16.06
2017-03-13T16:35:11.927Z,16.02
2017-03-13T16:36:26.220Z,15.96
2017-03-13T16:37:39.695Z,15.91
2017-03-13T16:38:53.687Z,15.86
2017-03-13T16:40:07.885Z,15.84
2017-03-13T16:41:21.845Z,15.81